AIC263 VAPO-VEBD
Flight info
| Callsign | AIC263 |
|---|---|
| Flight time | N/A |
| Altitude | 39000 |
| Route | PPN J2 NNP G450 KINKI W100 DADSO DCT LOTPU Q18 BGD |
| Aircraft | A20N/M-SDE2E3FGHIRWXY/LB1 |
Departure
| Time | 2026-04-29 16:53 |
|---|---|
| Airport | Pune International Airport (VAPO) |
Arrival
| Time | N/A |
|---|---|
| Airport | Bagdogra Airport (VEBD) |
| Time | Latitude | Longitude | Altitude | Speed | Heading |
|---|---|---|---|---|---|
| 2026-04-29 16:02 | 18.57995 | 73.90964 | 1923 ft | 0 kts | 192° |
| 2026-04-29 16:42 | 18.58002 | 73.90966 | 1923 ft | 2 kts | 186° |
| 2026-04-29 16:42 | 18.58018 | 73.90968 | 1923 ft | 2 kts | 178° |
| 2026-04-29 16:42 | 18.58035 | 73.90965 | 1923 ft | 2 kts | 155° |
| 2026-04-29 16:43 | 18.58048 | 73.90954 | 1923 ft | 2 kts | 115° |
| 2026-04-29 16:43 | 18.58053 | 73.90940 | 1923 ft | 1 kts | 99° |
| 2026-04-29 16:43 | 18.58053 | 73.90938 | 1923 ft | 0 kts | 99° |
| 2026-04-29 16:46 | 18.58052 | 73.90945 | 1923 ft | 3 kts | 99° |
| 2026-04-29 16:46 | 18.58047 | 73.90976 | 1923 ft | 6 kts | 99° |
| 2026-04-29 16:46 | 18.58040 | 73.91030 | 1923 ft | 9 kts | 96° |
| 2026-04-29 16:46 | 18.58032 | 73.91102 | 1923 ft | 11 kts | 98° |
| 2026-04-29 16:47 | 18.58030 | 73.91185 | 1923 ft | 11 kts | 64° |
| 2026-04-29 16:47 | 18.58096 | 73.91225 | 1923 ft | 12 kts | 43° |
| 2026-04-29 16:47 | 18.58108 | 73.91308 | 1923 ft | 13 kts | 92° |
| 2026-04-29 16:47 | 18.58103 | 73.91408 | 1923 ft | 15 kts | 94° |
| 2026-04-29 16:48 | 18.58099 | 73.91479 | 1923 ft | 16 kts | 94° |
| 2026-04-29 16:48 | 18.58098 | 73.91495 | 1923 ft | 16 kts | 93° |
| 2026-04-29 16:48 | 18.58089 | 73.91622 | 1923 ft | 18 kts | 93° |
| 2026-04-29 16:48 | 18.58082 | 73.91764 | 1923 ft | 20 kts | 93° |
| 2026-04-29 16:49 | 18.58072 | 73.91917 | 1923 ft | 22 kts | 94° |
| 2026-04-29 16:49 | 18.58061 | 73.92081 | 1923 ft | 23 kts | 95° |
| 2026-04-29 16:49 | 18.58048 | 73.92256 | 1923 ft | 24 kts | 95° |
| 2026-04-29 16:49 | 18.58038 | 73.92439 | 1923 ft | 26 kts | 93° |
| 2026-04-29 16:50 | 18.58027 | 73.92631 | 1923 ft | 27 kts | 94° |
| 2026-04-29 16:50 | 18.58014 | 73.92816 | 1923 ft | 20 kts | 94° |
| 2026-04-29 16:50 | 18.58009 | 73.92965 | 1923 ft | 20 kts | 94° |
| 2026-04-29 16:50 | 18.58065 | 73.93001 | 1923 ft | 11 kts | 359° |
| 2026-04-29 16:51 | 18.58070 | 73.93001 | 1923 ft | 0 kts | 359° |
| 2026-04-29 16:51 | 18.58073 | 73.93001 | 1923 ft | 1 kts | 0° |
| 2026-04-29 16:51 | 18.58094 | 73.93003 | 1923 ft | 5 kts | 5° |
| 2026-04-29 16:52 | 18.58136 | 73.93007 | 1923 ft | 8 kts | 4° |
| 2026-04-29 16:52 | 18.58165 | 73.92972 | 1923 ft | 8 kts | 275° |
| 2026-04-29 16:52 | 18.58167 | 73.92956 | 1923 ft | 10 kts | 275° |
| 2026-04-29 16:52 | 18.58187 | 73.92574 | 1923 ft | 91 kts | 274° |
| 2026-04-29 16:53 | 18.58244 | 73.91671 | 1923 ft | 154 kts | 274° |
| 2026-04-29 16:53 | 18.58322 | 73.90407 | 2306 ft | 175 kts | 274° |
| 2026-04-29 16:53 | 18.58442 | 73.89071 | 2993 ft | 192 kts | 277° |
| 2026-04-29 16:53 | 18.58658 | 73.87590 | 3690 ft | 218 kts | 279° |
| 2026-04-29 16:54 | 18.58882 | 73.85927 | 4442 ft | 241 kts | 275° |
| 2026-04-29 16:54 | 18.59002 | 73.84076 | 5197 ft | 263 kts | 273° |
| 2026-04-29 16:54 | 18.59105 | 73.82080 | 5942 ft | 282 kts | 274° |
| 2026-04-29 16:54 | 18.60757 | 73.78675 | 7288 ft | 312 kts | 320° |
| 2026-04-29 16:55 | 18.64406 | 73.75884 | 8747 ft | 342 kts | 317° |
| 2026-04-29 16:55 | 18.67789 | 73.72126 | 10206 ft | 367 kts | 325° |
| 2026-04-29 16:55 | 18.72772 | 73.70618 | 11678 ft | 389 kts | 2° |
| 2026-04-29 16:55 | 18.77938 | 73.72446 | 13139 ft | 408 kts | 34° |
| 2026-04-29 16:56 | 18.81631 | 73.77071 | 14600 ft | 425 kts | 65° |
| 2026-04-29 16:56 | 18.82807 | 73.83257 | 16065 ft | 440 kts | 92° |
| 2026-04-29 16:56 | 18.82113 | 73.87240 | 16992 ft | 448 kts | 109° |
| 2026-04-29 16:56 | 18.80802 | 73.90237 | 17760 ft | 452 kts | 121° |
| 2026-04-29 16:57 | 18.78892 | 73.92894 | 18509 ft | 457 kts | 134° |
| 2026-04-29 16:57 | 18.76461 | 73.95086 | 19238 ft | 461 kts | 146° |
| 2026-04-29 16:57 | 18.73638 | 73.96703 | 19967 ft | 465 kts | 157° |
| 2026-04-29 16:57 | 18.70613 | 73.97956 | 20693 ft | 468 kts | 160° |
| 2026-04-29 16:58 | 18.67536 | 73.99118 | 21419 ft | 471 kts | 161° |
| 2026-04-29 16:58 | 18.64532 | 74.00501 | 22144 ft | 472 kts | 151° |
| 2026-04-29 16:58 | 18.61838 | 74.02486 | 22871 ft | 473 kts | 139° |
| 2026-04-29 16:58 | 18.59579 | 74.04995 | 23594 ft | 473 kts | 127° |
| 2026-04-29 16:59 | 18.57844 | 74.07930 | 24324 ft | 472 kts | 116° |
| 2026-04-29 16:59 | 18.56712 | 74.11163 | 25049 ft | 468 kts | 104° |
| 2026-04-29 16:59 | 18.56243 | 74.14475 | 25760 ft | 448 kts | 92° |
| 2026-04-29 16:59 | 18.56460 | 74.17683 | 26476 ft | 433 kts | 78° |
| 2026-04-29 17:00 | 18.57350 | 74.20614 | 27181 ft | 408 kts | 64° |
| 2026-04-29 17:00 | 18.58851 | 74.23031 | 27843 ft | 384 kts | 47° |
| 2026-04-29 17:00 | 18.60846 | 74.24766 | 28333 ft | 362 kts | 28° |
| 2026-04-29 17:00 | 18.63124 | 74.25772 | 28830 ft | 353 kts | 18° |
| 2026-04-29 17:01 | 18.65472 | 74.26527 | 29338 ft | 350 kts | 15° |
| 2026-04-29 17:01 | 18.67806 | 74.27222 | 29819 ft | 346 kts | 15° |
| 2026-04-29 17:01 | 18.70113 | 74.27897 | 30308 ft | 342 kts | 15° |
| 2026-04-29 17:01 | 18.72383 | 74.28560 | 30625 ft | 343 kts | 15° |
| 2026-04-29 17:02 | 18.74694 | 74.29234 | 30885 ft | 345 kts | 15° |
| 2026-04-29 17:02 | 18.76976 | 74.30055 | 31137 ft | 348 kts | 26° |
| 2026-04-29 17:02 | 18.79016 | 74.31432 | 31363 ft | 350 kts | 41° |
| 2026-04-29 17:02 | 18.80702 | 74.33291 | 31601 ft | 352 kts | 52° |
| 2026-04-29 17:03 | 18.82121 | 74.35420 | 31772 ft | 358 kts | 58° |
| 2026-04-29 17:03 | 18.83403 | 74.37688 | 31978 ft | 360 kts | 60° |
| 2026-04-29 17:03 | 18.84627 | 74.39984 | 32337 ft | 358 kts | 60° |
| 2026-04-29 17:03 | 18.85847 | 74.42309 | 32573 ft | 361 kts | 61° |
| 2026-04-29 17:04 | 18.87067 | 74.44643 | 32788 ft | 363 kts | 61° |
| 2026-04-29 17:04 | 18.88298 | 74.46982 | 33005 ft | 365 kts | 60° |
| 2026-04-29 17:04 | 18.89553 | 74.49354 | 33221 ft | 367 kts | 60° |
| 2026-04-29 17:04 | 18.90396 | 74.50940 | 33360 ft | 368 kts | 60° |
| 2026-04-29 17:05 | 18.91552 | 74.53113 | 33559 ft | 370 kts | 60° |
| 2026-04-29 17:05 | 18.92827 | 74.55508 | 33757 ft | 372 kts | 60° |
| 2026-04-29 17:05 | 18.94096 | 74.57895 | 33966 ft | 373 kts | 60° |
| 2026-04-29 17:05 | 18.95372 | 74.60293 | 34154 ft | 375 kts | 60° |
| 2026-04-29 17:06 | 18.96656 | 74.62709 | 34343 ft | 377 kts | 60° |
| 2026-04-29 17:06 | 18.97942 | 74.65131 | 34537 ft | 378 kts | 60° |
| 2026-04-29 17:06 | 18.99244 | 74.67582 | 34729 ft | 380 kts | 60° |
| 2026-04-29 17:06 | 19.00548 | 74.70038 | 34910 ft | 382 kts | 60° |
| 2026-04-29 17:07 | 19.01869 | 74.72528 | 35086 ft | 383 kts | 60° |
| 2026-04-29 17:07 | 19.03197 | 74.75032 | 35272 ft | 384 kts | 60° |
| 2026-04-29 17:07 | 19.04507 | 74.77502 | 35444 ft | 386 kts | 60° |
| 2026-04-29 17:07 | 19.05821 | 74.79982 | 35607 ft | 387 kts | 60° |
| 2026-04-29 17:08 | 19.07142 | 74.82476 | 35761 ft | 389 kts | 60° |
| 2026-04-29 17:08 | 19.08467 | 74.84977 | 35916 ft | 390 kts | 60° |
| 2026-04-29 17:08 | 19.09799 | 74.87494 | 36063 ft | 392 kts | 60° |
| 2026-04-29 17:08 | 19.11130 | 74.90010 | 36209 ft | 393 kts | 60° |
| 2026-04-29 17:09 | 19.12470 | 74.92544 | 36355 ft | 395 kts | 60° |
| 2026-04-29 17:09 | 19.13810 | 74.95079 | 36484 ft | 396 kts | 60° |
| 2026-04-29 17:09 | 19.15156 | 74.97626 | 36676 ft | 396 kts | 60° |
| 2026-04-29 17:09 | 19.16502 | 75.00174 | 36797 ft | 398 kts | 60° |
| 2026-04-29 17:10 | 19.17852 | 75.02731 | 36924 ft | 399 kts | 60° |
| 2026-04-29 17:10 | 19.19190 | 75.05267 | 37053 ft | 400 kts | 60° |
| 2026-04-29 17:10 | 19.20549 | 75.07844 | 37177 ft | 401 kts | 60° |
| 2026-04-29 17:10 | 19.21913 | 75.10430 | 37301 ft | 402 kts | 60° |
| 2026-04-29 17:11 | 19.23295 | 75.13050 | 37420 ft | 404 kts | 60° |
| 2026-04-29 17:11 | 19.24718 | 75.15743 | 37542 ft | 405 kts | 60° |
| 2026-04-29 17:11 | 19.26092 | 75.18326 | 37656 ft | 406 kts | 60° |
| 2026-04-29 17:11 | 19.27511 | 75.20994 | 37769 ft | 407 kts | 60° |
| 2026-04-29 17:12 | 19.28960 | 75.23722 | 37886 ft | 408 kts | 60° |
| 2026-04-29 17:12 | 19.30397 | 75.26427 | 37993 ft | 409 kts | 60° |
| 2026-04-29 17:12 | 19.32368 | 75.30146 | 38130 ft | 411 kts | 60° |
| 2026-04-29 17:13 | 19.34230 | 75.33659 | 38269 ft | 412 kts | 60° |
| 2026-04-29 17:13 | 19.35653 | 75.36346 | 38372 ft | 413 kts | 60° |
| 2026-04-29 17:13 | 19.38488 | 75.41703 | 38562 ft | 415 kts | 60° |
| 2026-04-29 17:14 | 19.41319 | 75.47057 | 38744 ft | 416 kts | 60° |
| 2026-04-29 17:14 | 19.44165 | 75.52443 | 38917 ft | 418 kts | 60° |
| 2026-04-29 17:15 | 19.47016 | 75.57845 | 38997 ft | 422 kts | 60° |
| 2026-04-29 17:15 | 19.49894 | 75.63318 | 38996 ft | 428 kts | 62° |
| 2026-04-29 17:16 | 19.55212 | 75.74731 | 38998 ft | 441 kts | 63° |
| 2026-04-29 17:16 | 19.60657 | 75.86440 | 39005 ft | 454 kts | 64° |
| 2026-04-29 17:16 | 19.66748 | 75.99574 | 39004 ft | 453 kts | 64° |
| 2026-04-29 17:17 | 19.77295 | 76.22394 | 38998 ft | 454 kts | 64° |
| 2026-04-29 17:17 | 19.88006 | 76.45663 | 39002 ft | 453 kts | 64° |
| 2026-04-29 17:18 | 19.99113 | 76.69897 | 39004 ft | 454 kts | 64° |
| 2026-04-29 17:18 | 20.10134 | 76.94051 | 38997 ft | 454 kts | 64° |
| 2026-04-29 17:19 | 20.21123 | 77.18240 | 39008 ft | 454 kts | 64° |
| 2026-04-29 17:19 | 20.32076 | 77.42454 | 39001 ft | 453 kts | 64° |
| 2026-04-29 17:20 | 20.42980 | 77.66671 | 38998 ft | 452 kts | 64° |
| 2026-04-29 17:20 | 20.53870 | 77.90886 | 39005 ft | 452 kts | 63° |
| 2026-04-29 17:21 | 20.65324 | 78.14783 | 38997 ft | 452 kts | 63° |
| 2026-04-29 17:21 | 20.76703 | 78.38740 | 38999 ft | 452 kts | 63° |
| 2026-04-29 17:22 | 20.88331 | 78.63329 | 38997 ft | 452 kts | 63° |
| 2026-04-29 17:22 | 20.99647 | 78.87369 | 39013 ft | 453 kts | 63° |
| 2026-04-29 17:23 | 21.09935 | 79.11862 | 38999 ft | 452 kts | 73° |
| 2026-04-29 17:23 | 21.17117 | 79.37719 | 38998 ft | 452 kts | 73° |
| 2026-04-29 17:24 | 21.24058 | 79.62891 | 38999 ft | 452 kts | 73° |
| 2026-04-29 17:24 | 21.30020 | 79.84638 | 38999 ft | 452 kts | 73° |
| 2026-04-29 17:25 | 21.37067 | 80.10499 | 39002 ft | 453 kts | 73° |
| 2026-04-29 17:25 | 21.43917 | 80.35804 | 39006 ft | 452 kts | 73° |
| 2026-04-29 17:26 | 21.47445 | 80.48901 | 39003 ft | 452 kts | 74° |
| 2026-04-29 17:26 | 21.51970 | 80.65751 | 39000 ft | 453 kts | 74° |
| 2026-04-29 17:27 | 21.55467 | 80.78802 | 39088 ft | 454 kts | 74° |
| 2026-04-29 17:27 | 21.57212 | 80.85335 | 39334 ft | 455 kts | 74° |
| 2026-04-29 17:27 | 21.58556 | 80.90369 | 39529 ft | 455 kts | 74° |
| 2026-04-29 17:28 | 21.59768 | 80.94920 | 39700 ft | 455 kts | 74° |
| 2026-04-29 17:28 | 21.60639 | 80.98191 | 39836 ft | 455 kts | 74° |
| 2026-04-29 17:28 | 21.61500 | 81.01426 | 39951 ft | 454 kts | 74° |
| 2026-04-29 17:28 | 21.62366 | 81.04686 | 40060 ft | 454 kts | 74° |
| 2026-04-29 17:29 | 21.63234 | 81.07954 | 40201 ft | 454 kts | 74° |
| 2026-04-29 17:29 | 21.64109 | 81.11250 | 40315 ft | 453 kts | 74° |
| 2026-04-29 17:29 | 21.64972 | 81.14507 | 40448 ft | 452 kts | 74° |
| 2026-04-29 17:29 | 21.66795 | 81.21394 | 40711 ft | 450 kts | 74° |
| 2026-04-29 17:30 | 21.69243 | 81.30658 | 41064 ft | 446 kts | 74° |
| 2026-04-29 17:30 | 21.70960 | 81.36955 | 41311 ft | 443 kts | 73° |
| 2026-04-29 17:30 | 21.73069 | 81.44548 | 41602 ft | 438 kts | 73° |
| 2026-04-29 17:30 | 21.74128 | 81.48386 | 41717 ft | 437 kts | 73° |
| 2026-04-29 17:31 | 21.75051 | 81.51742 | 41757 ft | 437 kts | 73° |